Time;durP1;ratioP1;P1;durP2;ratioP2;P2;SDS_P1;SDS_P2;PMS_P1;PMS_P2;Temp;Humidity;BMP_temperature;BMP_pressure;BME280_temperature;BME280_humidity;BME280_pressure;Samples;Min_cycle;Max_cycle;Signal;HPM_P1;HPM_P2
2021/11/27 00:01:10;;;;;;;6.32;3.28;;;;;;;4.44;69.99;94421.38;5044639;28;20373;-80
2021/11/27 00:03:35;;;;;;;7.65;4.15;;;;;;;4.45;69.76;94412.56;5041631;28;20075;-81
2021/11/27 00:06:00;;;;;;;5.90;3.10;;;;;;;4.45;69.99;94415.16;5060374;28;20032;-81
2021/11/27 00:08:27;;;;;;;7.07;3.97;;;;;;;4.49;70.25;94418.75;5036741;28;20659;-81
2021/11/27 00:10:55;;;;;;;6.47;3.55;;;;;;;4.60;69.79;94419.38;5048069;28;20024;-80
2021/11/27 00:13:21;;;;;;;6.50;3.63;;;;;;;4.60;69.17;94425.31;5060499;28;20035;-80
2021/11/27 00:15:48;;;;;;;6.07;3.38;;;;;;;4.60;68.96;94417.56;5042719;28;20107;-79
2021/11/27 00:18:17;;;;;;;4.97;2.78;;;;;;;4.56;69.89;94414.03;5021020;28;20078;-80
2021/11/27 00:20:52;;;;;;;5.95;3.58;;;;;;;4.43;69.80;94412.09;5042307;28;20502;-80
2021/11/27 00:23:17;;;;;;;5.83;3.00;;;;;;;4.71;69.61;94409.72;5061711;28;20040;-80
2021/11/27 00:25:43;;;;;;;6.57;3.20;;;;;;;4.43;70.20;94404.38;5059089;28;20612;-80
2021/11/27 00:28:09;;;;;;;6.97;3.22;;;;;;;4.58;70.17;94401.63;5040493;28;20045;-80
2021/11/27 00:30:35;;;;;;;4.70;3.08;;;;;;;4.52;69.91;94405.28;5057234;28;20047;-80
2021/11/27 00:33:02;;;;;;;5.93;2.70;;;;;;;4.77;69.24;94398.34;5061520;28;20428;-80
2021/11/27 00:35:27;;;;;;;6.13;2.85;;;;;;;4.83;69.10;94398.00;5043711;28;20055;-79
2021/11/27 00:37:55;;;;;;;4.68;2.78;;;;;;;4.64;69.72;94386.88;5021841;28;20025;-81
2021/11/27 00:40:20;;;;;;;5.80;2.40;;;;;;;4.77;69.30;94382.88;5043945;28;20024;-80
2021/11/27 00:42:47;;;;;;;4.43;2.72;;;;;;;4.68;69.59;94382.72;5060387;28;20029;-80
2021/11/27 00:45:14;;;;;;;4.75;2.60;;;;;;;4.60;70.05;94373.75;5042136;28;20072;-80
2021/11/27 00:47:41;;;;;;;5.45;2.47;;;;;;;4.74;70.15;94380.84;5025488;28;20033;-80
2021/11/27 00:50:08;;;;;;;5.32;2.45;;;;;;;4.78;69.00;94381.81;5033673;28;20032;-79
2021/11/27 00:52:33;;;;;;;4.88;2.42;;;;;;;4.71;69.54;94378.81;5068558;28;20032;-80
2021/11/27 00:54:59;;;;;;;3.90;2.05;;;;;;;4.76;69.25;94373.59;5065174;28;20029;-80
2021/11/27 00:57:24;;;;;;;4.22;2.03;;;;;;;4.74;69.89;94373.09;5016811;28;20396;-80
2021/11/27 00:59:50;;;;;;;4.32;2.45;;;;;;;4.64;69.92;94382.50;5023668;28;20083;-80
2021/11/27 01:02:15;;;;;;;4.40;1.95;;;;;;;4.84;69.72;94378.13;5030428;28;20560;-81
2021/11/27 01:04:41;;;;;;;5.03;2.15;;;;;;;4.87;69.18;94375.78;5013963;28;20124;-79
2021/11/27 01:07:06;;;;;;;3.38;2.30;;;;;;;4.75;69.41;94372.06;5030079;28;20036;-81
2021/11/27 01:09:32;;;;;;;3.10;2.15;;;;;;;4.78;69.25;94368.91;5009769;28;20047;-82
2021/11/27 01:11:58;;;;;;;3.60;1.85;;;;;;;4.67;69.85;94363.13;5013871;28;20114;-81
2021/11/27 01:14:26;;;;;;;3.20;1.95;;;;;;;4.64;69.41;94358.53;5046995;28;20459;-80
2021/11/27 01:17:02;;;;;;;3.72;1.90;;;;;;;4.73;69.49;94359.47;5046718;28;20044;-81
2021/11/27 01:19:28;;;;;;;3.13;1.83;;;;;;;4.89;69.69;94352.28;5030661;28;20029;-81
2021/11/27 01:21:59;;;;;;;3.08;1.70;;;;;;;4.73;69.61;94350.94;5030208;28;20040;-80
2021/11/27 01:24:27;;;;;;;4.10;1.77;;;;;;;5.03;69.44;94344.63;5038103;28;20406;-81
2021/11/27 01:26:54;;;;;;;4.20;2.13;;;;;;;4.94;69.25;94336.75;5029044;28;20024;-80
2021/11/27 01:29:21;;;;;;;4.85;2.00;;;;;;;5.02;68.98;94346.47;5017121;28;20025;-80
2021/11/27 01:31:46;;;;;;;4.70;2.17;;;;;;;4.64;70.83;94345.63;5025750;28;20400;-81
2021/11/27 01:34:12;;;;;;;4.40;2.38;;;;;;;4.65;70.50;94345.38;5018571;28;20029;-80
2021/11/27 01:36:37;;;;;;;4.60;1.95;;;;;;;4.78;70.11;94348.31;5061558;28;20040;-81
2021/11/27 01:39:04;;;;;;;2.97;1.80;;;;;;;4.95;69.71;94340.09;5051872;28;20043;-81
2021/11/27 01:41:30;;;;;;;4.68;2.05;;;;;;;4.97;69.44;94349.09;5033649;28;20056;-81
2021/11/27 01:43:55;;;;;;;5.00;2.95;;;;;;;5.07;69.47;94343.03;5050086;28;20358;-81
2021/11/27 01:46:21;;;;;;;4.25;2.33;;;;;;;5.02;69.09;94343.09;5033316;28;20032;-81
2021/11/27 01:48:47;;;;;;;4.20;2.40;;;;;;;5.13;69.38;94343.75;5015841;28;20028;-80
2021/11/27 01:51:19;;;;;;;4.80;2.38;;;;;;;5.15;68.76;94334.66;5033722;28;20562;-80
2021/11/27 01:53:57;;;;;;;3.78;2.35;;;;;;;4.81;68.92;94329.72;5049918;28;20024;-80
2021/11/27 01:56:26;;;;;;;3.38;2.15;;;;;;;4.97;69.55;94327.69;5033202;28;20040;-80
2021/11/27 01:58:52;;;;;;;3.30;2.05;;;;;;;5.06;68.86;94319.06;5033616;28;20492;-81
2021/11/27 02:01:25;;;;;;;3.78;2.42;;;;;;;4.90;69.39;94330.63;5033812;28;20071;-80
2021/11/27 02:03:51;;;;;;;3.00;1.70;;;;;;;4.92;69.65;94332.91;5068279;28;20758;-80
2021/11/27 02:06:19;;;;;;;2.97;2.10;;;;;;;5.05;69.04;94325.28;5032674;28;20042;-80
2021/11/27 02:08:46;;;;;;;4.47;2.30;;;;;;;5.05;69.04;94317.53;5016806;28;20032;-81
2021/11/27 02:11:13;;;;;;;3.85;2.20;;;;;;;5.04;69.17;94325.56;5033292;28;20043;-80
2021/11/27 02:13:38;;;;;;;4.05;1.95;;;;;;;5.12;68.93;94322.31;5050202;28;20110;-80
2021/11/27 02:16:04;;;;;;;4.50;2.05;;;;;;;5.05;69.25;94317.53;5033062;28;20052;-80
2021/11/27 02:18:30;;;;;;;2.97;1.70;;;;;;;4.94;69.53;94307.63;5049627;28;20028;-80
2021/11/27 02:21:08;;;;;;;3.33;2.20;;;;;;;4.75;69.68;94307.63;5033349;28;20047;-80
2021/11/27 02:23:34;;;;;;;3.55;1.88;;;;;;;4.96;68.92;94316.63;5067855;28;20032;-80
2021/11/27 02:26:02;;;;;;;3.78;2.47;;;;;;;4.95;68.74;94309.16;5033220;28;20024;-80
2021/11/27 02:28:29;;;;;;;2.75;2.00;;;;;;;4.94;68.77;94313.56;5032765;28;20412;-80
2021/11/27 02:30:54;;;;;;;2.97;1.70;;;;;;;5.03;68.59;94316.28;5047476;28;20025;-80
2021/11/27 02:33:20;;;;;;;2.85;1.58;;;;;;;4.85;69.47;94317.81;5029528;28;20384;-81
2021/11/27 02:35:45;;;;;;;3.97;1.70;;;;;;;4.61;70.29;94313.47;5045611;28;20441;-80
2021/11/27 02:38:11;;;;;;;2.47;1.35;;;;;;;4.81;69.31;94307.25;5032632;28;20024;-80
2021/11/27 02:40:37;;;;;;;2.58;1.48;;;;;;;4.92;69.72;94313.06;5050031;28;20074;-80
2021/11/27 02:43:03;;;;;;;4.47;1.80;;;;;;;4.74;69.89;94311.25;5016608;28;20032;-81
2021/11/27 02:45:28;;;;;;;2.13;1.40;;;;;;;4.81;69.94;94314.25;5032900;28;20036;-80
2021/11/27 02:47:54;;;;;;;2.58;1.30;;;;;;;4.79;70.17;94303.44;5049313;28;20241;-80
2021/11/27 02:50:19;;;;;;;3.95;1.70;;;;;;;4.89;69.48;94293.00;5049545;28;20588;-80
2021/11/27 02:52:45;;;;;;;3.50;1.40;;;;;;;4.85;69.24;94297.19;5049565;28;20115;-80
2021/11/27 02:55:11;;;;;;;2.35;1.30;;;;;;;5.03;68.96;94308.53;5016712;28;20024;-79
2021/11/27 02:57:37;;;;;;;2.42;1.55;;;;;;;4.97;69.91;94297.53;5017445;28;20032;-79
2021/11/27 03:00:10;;;;;;;2.22;1.10;;;;;;;4.63;70.00;94303.66;5038952;28;20115;-80
2021/11/27 03:02:36;;;;;;;2.25;1.15;;;;;;;4.95;69.71;94298.84;5052934;28;20040;-80
2021/11/27 03:05:02;;;;;;;1.95;1.33;;;;;;;4.96;69.76;94298.56;5036771;28;20503;-79
2021/11/27 03:07:27;;;;;;;1.77;0.95;;;;;;;4.89;69.79;94295.56;5053185;28;20036;-80
2021/11/27 03:09:53;;;;;;;1.67;1.02;;;;;;;4.86;70.07;94299.47;5036805;28;20031;-80
2021/11/27 03:12:19;;;;;;;1.67;1.20;;;;;;;5.12;69.22;94295.78;5053168;28;20033;-80
2021/11/27 03:14:45;;;;;;;1.48;1.15;;;;;;;4.98;69.90;94296.47;5036226;28;20111;-80
2021/11/27 03:17:10;;;;;;;3.13;1.67;;;;;;;4.98;69.62;94296.47;5036034;28;20428;-80
2021/11/27 03:19:38;;;;;;;2.38;1.08;;;;;;;5.06;69.33;94295.84;5019846;28;20035;-80
2021/11/27 03:22:04;;;;;;;2.22;1.20;;;;;;;5.03;69.73;94306.72;5036566;28;20400;-80
2021/11/27 03:24:30;;;;;;;2.90;1.15;;;;;;;4.91;69.85;94301.22;5053228;28;20039;-80
2021/11/27 03:26:56;;;;;;;1.48;0.98;;;;;;;4.84;70.39;94300.81;5036178;28;20029;-79
2021/11/27 03:29:22;;;;;;;2.85;1.80;;;;;;;4.91;70.53;94296.06;5052952;28;20476;-80
2021/11/27 03:31:47;;;;;;;1.77;1.45;;;;;;;4.92;70.11;94289.88;5022927;28;20041;-81
2021/11/27 03:34:13;;;;;;;2.70;1.55;;;;;;;4.98;70.54;94296.47;5031051;28;20025;-80
2021/11/27 03:36:38;;;;;;;4.18;1.90;;;;;;;4.95;70.58;94294.47;5052018;28;20032;-80
2021/11/27 03:39:06;;;;;;;4.05;1.50;;;;;;;5.06;70.43;94285.53;5036136;28;20079;-81
2021/11/27 03:41:32;;;;;;;2.72;1.63;;;;;;;5.19;69.89;94285.88;5035812;28;20082;-80
2021/11/27 03:43:57;;;;;;;3.92;2.05;;;;;;;5.26;69.23;94291.44;5052605;28;20029;-80
2021/11/27 03:46:23;;;;;;;2.33;1.63;;;;;;;5.29;69.37;94296.03;5035709;28;20047;-81
2021/11/27 03:48:51;;;;;;;3.28;2.00;;;;;;;5.14;69.46;94298.84;5035524;28;20492;-80
2021/11/27 03:51:19;;;;;;;2.50;1.90;;;;;;;5.03;70.28;94301.56;5019459;28;20035;-81
2021/11/27 03:53:45;;;;;;;4.15;2.50;;;;;;;5.06;70.10;94297.66;5051845;28;20086;-80
2021/11/27 03:56:14;;;;;;;3.33;1.98;;;;;;;5.18;69.87;94302.41;5051822;28;20500;-81
2021/11/27 03:58:40;;;;;;;3.95;2.25;;;;;;;5.33;69.62;94307.34;5031612;28;20067;-80
2021/11/27 04:01:10;;;;;;;2.67;2.05;;;;;;;5.20;69.17;94297.72;5032080;28;20073;-81
2021/11/27 04:03:38;;;;;;;4.10;2.17;;;;;;;5.18;69.66;94304.97;5048636;28;20045;-81
2021/11/27 04:06:04;;;;;;;3.83;2.40;;;;;;;5.34;69.10;94298.53;5031852;28;20064;-80
2021/11/27 04:08:30;;;;;;;3.20;2.13;;;;;;;5.16;69.66;94301.91;5031868;28;20029;-82
2021/11/27 04:10:56;;;;;;;4.00;2.33;;;;;;;5.37;69.15;94313.44;5031167;28;20083;-82
2021/11/27 04:13:21;;;;;;;3.30;2.30;;;;;;;5.37;69.20;94304.97;5015712;28;20040;-81
2021/11/27 04:15:47;;;;;;;3.60;2.05;;;;;;;5.33;69.53;94307.34;5015155;28;20044;-81
2021/11/27 04:18:13;;;;;;;4.43;2.42;;;;;;;5.37;69.54;94303.13;5024172;28;20704;-81
2021/11/27 04:20:39;;;;;;;2.97;1.95;;;;;;;5.33;69.74;94299.59;5031889;28;20029;-80
2021/11/27 04:23:05;;;;;;;2.60;2.15;;;;;;;5.36;68.99;94300.84;5036285;28;20036;-81
2021/11/27 04:25:30;;;;;;;3.22;2.30;;;;;;;5.30;69.17;94296.81;5018341;28;20028;-80
2021/11/27 04:27:56;;;;;;;2.95;1.98;;;;;;;5.24;69.41;94303.84;5034612;28;20479;-80
2021/11/27 04:30:26;;;;;;;2.65;1.83;;;;;;;5.25;69.62;94305.38;5034819;28;20043;-79
2021/11/27 04:32:52;;;;;;;2.83;1.77;;;;;;;5.34;69.02;94308.09;5031644;28;20070;-80
2021/11/27 04:35:18;;;;;;;3.50;1.83;;;;;;;5.37;69.20;94310.13;5048572;28;20178;-80
2021/11/27 04:37:44;;;;;;;2.50;1.65;;;;;;;5.36;69.27;94319.66;5031138;28;20025;-80
2021/11/27 04:40:10;;;;;;;2.60;1.52;;;;;;;5.54;68.85;94314.75;5031732;28;20326;-80
2021/11/27 04:42:36;;;;;;;1.77;1.30;;;;;;;5.57;68.67;94319.34;5031695;28;20031;-80
2021/11/27 04:45:03;;;;;;;2.35;1.52;;;;;;;5.52;68.53;94317.63;5031486;28;20036;-79
2021/11/27 04:47:29;;;;;;;2.60;1.63;;;;;;;5.48;68.25;94323.63;5031546;28;20058;-80
2021/11/27 04:49:54;;;;;;;2.28;1.40;;;;;;;5.33;68.98;94322.81;5015040;28;20033;-80
2021/11/27 04:52:21;;;;;;;5.05;1.80;;;;;;;5.36;68.64;94322.22;5031873;28;20029;-80
2021/11/27 04:54:47;;;;;;;2.10;1.20;;;;;;;5.30;68.47;94322.59;5049139;28;20029;-80
2021/11/27 04:57:12;;;;;;;2.00;1.33;;;;;;;5.15;69.05;94332.09;5047132;28;20500;-80
2021/11/27 04:59:38;;;;;;;1.98;1.23;;;;;;;5.20;68.83;94328.69;5015271;28;20041;-79
2021/11/27 05:02:04;;;;;;;3.88;2.28;;;;;;;5.11;69.36;94325.97;5048403;28;20122;-80
2021/11/27 05:04:30;;;;;;;2.20;1.50;;;;;;;5.25;68.83;94324.19;5034785;28;20028;-80
2021/11/27 05:06:55;;;;;;;4.05;1.80;;;;;;;5.31;68.56;94334.44;5050830;28;20107;-80
2021/11/27 05:09:21;;;;;;;4.00;1.85;;;;;;;5.29;69.32;94336.53;5034511;28;20082;-80
2021/11/27 05:11:47;;;;;;;4.13;2.30;;;;;;;5.21;68.85;94336.13;5051417;28;20043;-80
2021/11/27 05:14:12;;;;;;;4.03;2.50;;;;;;;5.25;69.01;94338.91;5034691;28;20075;-79
2021/11/27 05:16:38;;;;;;;3.67;2.38;;;;;;;5.11;69.20;94341.44;5017666;28;20028;-80
2021/11/27 05:19:03;;;;;;;3.65;2.42;;;;;;;5.30;69.60;94338.84;5051029;28;20032;-80
2021/11/27 05:21:29;;;;;;;3.72;2.40;;;;;;;5.36;69.29;94350.59;5034997;28;20083;-80
2021/11/27 05:23:54;;;;;;;3.78;2.50;;;;;;;5.43;68.89;94348.47;5013701;28;20033;-80
2021/11/27 05:26:20;;;;;;;4.07;2.40;;;;;;;5.48;68.55;94349.41;5014256;28;20365;-79
2021/11/27 05:28:45;;;;;;;4.80;2.40;;;;;;;5.41;69.35;94344.63;5031386;28;20104;-80
2021/11/27 05:31:14;;;;;;;4.47;2.50;;;;;;;5.50;68.69;94349.91;5046449;28;20028;-79
2021/11/27 05:36:26;;;;;;;4.05;2.65;;;;;;;5.34;69.05;94364.84;5036235;28;20029;-80
2021/11/27 05:38:52;;;;;;;3.97;2.38;;;;;;;5.56;68.89;94361.69;5034520;28;20037;-80
2021/11/27 05:41:17;;;;;;;3.28;2.42;;;;;;;5.61;69.11;94356.44;5050397;28;20024;-80
2021/11/27 05:43:43;;;;;;;3.63;2.35;;;;;;;5.56;69.26;94364.28;5050701;28;20036;-80
2021/11/27 05:46:09;;;;;;;3.05;2.13;;;;;;;5.57;68.63;94365.78;5050333;28;20041;-79
2021/11/27 05:48:35;;;;;;;3.28;2.05;;;;;;;5.55;68.98;94370.47;5050837;28;20032;-80
2021/11/27 05:51:01;;;;;;;4.18;2.50;;;;;;;5.41;69.23;94378.91;5013766;28;20079;-80
2021/11/27 05:53:26;;;;;;;3.97;2.40;;;;;;;5.50;69.38;94379.06;5030495;28;20037;-79
2021/11/27 05:55:52;;;;;;;6.18;2.40;;;;;;;5.41;69.39;94373.75;5014243;28;20041;-80
2021/11/27 05:58:18;;;;;;;5.43;3.15;;;;;;;5.60;68.84;94376.34;4997958;28;20032;-79
2021/11/27 06:00:45;;;;;;;3.70;2.60;;;;;;;5.53;68.62;94383.66;5030152;28;20610;-80
2021/11/27 06:03:10;;;;;;;3.90;2.58;;;;;;;5.53;69.17;94385.47;5013367;28;20029;-80
2021/11/27 06:05:36;;;;;;;5.47;2.55;;;;;;;5.49;68.81;94376.78;4996916;28;20021;-79
2021/11/27 06:08:02;;;;;;;3.97;2.60;;;;;;;5.52;69.19;94378.78;5012949;28;20036;-80
2021/11/27 06:10:28;;;;;;;3.92;2.78;;;;;;;5.54;69.58;94385.19;5013210;28;20032;-79
2021/11/27 06:12:53;;;;;;;5.20;2.78;;;;;;;5.54;69.20;94390.34;5030100;28;20033;-79
2021/11/27 06:15:19;;;;;;;4.22;2.75;;;;;;;5.63;68.85;94382.75;5013389;28;20025;-79
2021/11/27 06:17:44;;;;;;;3.83;2.80;;;;;;;5.65;68.97;94387.63;5013127;28;20025;-79
2021/11/27 06:20:11;;;;;;;4.07;2.67;;;;;;;5.67;68.70;94396.59;5032310;28;20074;-79
2021/11/27 06:22:36;;;;;;;4.07;2.58;;;;;;;5.69;69.10;94398.91;5049378;28;20234;-80
2021/11/27 06:25:02;;;;;;;3.75;2.42;;;;;;;5.43;69.61;94410.38;5032599;28;20123;-80
2021/11/27 06:27:27;;;;;;;4.28;2.65;;;;;;;5.52;69.05;94400.19;5032254;28;20021;-80
2021/11/27 06:29:53;;;;;;;4.05;2.47;;;;;;;5.46;69.72;94410.88;5049359;28;20047;-80
2021/11/27 06:32:23;;;;;;;4.53;2.60;;;;;;;5.44;69.99;94406.00;5065324;28;20145;-79
2021/11/27 06:34:52;;;;;;;6.43;3.20;;;;;;;5.51;69.72;94403.06;5015644;28;20043;-79
2021/11/27 06:37:19;;;;;;;7.03;3.30;;;;;;;5.29;70.27;94404.38;5033867;28;20037;-80
2021/11/27 06:39:44;;;;;;;4.68;2.85;;;;;;;5.24;69.86;94401.88;5017562;28;20035;-79
2021/11/27 06:42:10;;;;;;;5.00;2.53;;;;;;;5.59;68.98;94410.16;5034915;28;20029;-79
2021/11/27 06:44:35;;;;;;;4.05;2.38;;;;;;;5.61;69.86;94414.00;5034490;28;20033;-79
2021/11/27 06:47:01;;;;;;;4.40;2.42;;;;;;;5.67;68.94;94413.91;5035119;28;20038;-79
2021/11/27 06:49:26;;;;;;;5.05;2.50;;;;;;;5.66;69.22;94420.91;5074284;28;20024;-79
2021/11/27 06:51:52;;;;;;;4.22;2.78;;;;;;;5.76;69.65;94418.16;5057696;28;20111;-79
2021/11/27 06:54:17;;;;;;;4.30;2.75;;;;;;;5.82;68.38;94414.44;5074469;28;20035;-79
2021/11/27 06:56:43;;;;;;;4.72;2.55;;;;;;;5.80;68.14;94419.13;5073823;28;20078;-78
2021/11/27 06:59:08;;;;;;;5.15;2.90;;;;;;;5.85;68.12;94428.63;5016129;28;20036;-78
2021/11/27 07:01:34;;;;;;;4.60;2.38;;;;;;;5.84;68.39;94421.91;5045802;28;20037;-79
2021/11/27 07:03:59;;;;;;;4.32;2.60;;;;;;;5.87;68.24;94436.09;5037792;28;20036;-79
2021/11/27 07:06:25;;;;;;;3.38;2.28;;;;;;;5.73;68.10;94443.78;5053829;28;20033;-80
2021/11/27 07:08:50;;;;;;;4.20;2.65;;;;;;;5.78;68.33;94439.31;5053803;28;20037;-79
2021/11/27 07:11:16;;;;;;;4.18;2.90;;;;;;;5.77;68.68;94440.34;5053856;28;20154;-79
2021/11/27 07:13:41;;;;;;;4.60;2.63;;;;;;;5.82;68.26;94442.09;5071702;28;20103;-79
2021/11/27 07:16:07;;;;;;;3.13;2.25;;;;;;;5.84;68.74;94452.13;5053502;28;20032;-79
2021/11/27 07:18:32;;;;;;;5.55;3.20;;;;;;;5.73;67.79;94452.28;5037105;28;20527;-80
2021/11/27 07:20:57;;;;;;;4.90;2.53;;;;;;;5.72;68.54;94458.50;5037043;28;20032;-79
2021/11/27 07:23:23;;;;;;;3.47;2.20;;;;;;;5.71;68.34;94462.13;5053927;28;20396;-79
2021/11/27 07:25:48;;;;;;;3.20;2.05;;;;;;;5.75;68.86;94470.84;5036675;28;20059;-79
2021/11/27 07:28:14;;;;;;;3.42;2.22;;;;;;;5.71;68.56;94475.03;5071490;28;20081;-80
2021/11/27 07:30:39;;;;;;;3.50;2.10;;;;;;;5.73;68.61;94487.66;5020378;28;20542;-80
2021/11/27 07:33:05;;;;;;;3.40;2.20;;;;;;;5.76;68.33;94489.69;5053230;28;20038;-80
2021/11/27 07:35:31;;;;;;;3.13;2.10;;;;;;;5.75;67.91;94496.66;5053060;28;20443;-79
2021/11/27 07:37:56;;;;;;;4.47;2.22;;;;;;;5.78;68.26;94498.69;5052970;28;20068;-79
2021/11/27 07:40:22;;;;;;;3.97;2.22;;;;;;;5.84;68.35;94506.38;5036587;28;20060;-80
2021/11/27 07:42:50;;;;;;;4.22;2.55;;;;;;;5.85;68.06;94507.91;5053286;28;20094;-80
2021/11/27 07:45:16;;;;;;;4.18;2.50;;;;;;;5.72;68.50;94509.34;5036597;28;20033;-80
2021/11/27 07:47:42;;;;;;;4.70;2.75;;;;;;;5.75;68.56;94519.91;5035284;28;20040;-80
2021/11/27 07:50:08;;;;;;;4.45;3.15;;;;;;;5.81;67.47;94521.38;5053062;28;20024;-80
2021/11/27 07:52:33;;;;;;;5.18;2.85;;;;;;;5.77;67.58;94525.53;5019672;28;20400;-79
2021/11/27 07:54:59;;;;;;;6.13;3.40;;;;;;;5.78;68.10;94529.66;5036407;28;20024;-80
2021/11/27 07:57:24;;;;;;;5.75;3.17;;;;;;;5.73;68.04;94523.81;5035934;28;20062;-80
2021/11/27 07:59:50;;;;;;;5.10;3.10;;;;;;;5.77;68.37;94533.28;5036281;28;20028;-79
2021/11/27 08:02:15;;;;;;;6.97;3.45;;;;;;;5.85;68.57;94538.91;5052988;28;20056;-79
2021/11/27 08:04:41;;;;;;;5.97;3.85;;;;;;;5.83;68.77;94546.91;5070324;28;20029;-80
2021/11/27 08:07:06;;;;;;;6.63;3.55;;;;;;;5.81;68.17;94552.34;5052328;28;20029;-80
2021/11/27 08:09:32;;;;;;;5.70;3.35;;;;;;;5.84;68.05;94547.69;5053109;28;20374;-80
2021/11/27 08:11:57;;;;;;;6.18;3.75;;;;;;;5.82;68.06;94560.88;5019631;28;20074;-79
2021/11/27 08:14:27;;;;;;;6.90;3.60;;;;;;;5.89;68.41;94560.53;5052742;28;20029;-80
2021/11/27 08:16:52;;;;;;;6.90;4.25;;;;;;;5.92;67.82;94565.13;5052898;28;20032;-80
2021/11/27 08:19:18;;;;;;;7.18;4.20;;;;;;;5.81;68.70;94564.50;5037822;28;20377;-80
2021/11/27 08:21:43;;;;;;;5.60;3.63;;;;;;;5.86;68.69;94568.81;5023471;28;20036;-80
2021/11/27 08:24:08;;;;;;;6.47;3.70;;;;;;;5.89;67.82;94560.53;5035744;28;20028;-80
2021/11/27 08:26:34;;;;;;;6.07;3.72;;;;;;;5.91;68.11;94566.16;5051837;28;20478;-79
2021/11/27 08:29:00;;;;;;;6.07;3.50;;;;;;;5.88;67.61;94569.31;5052560;28;20557;-80
2021/11/27 08:31:26;;;;;;;5.70;3.53;;;;;;;6.02;67.84;94574.59;5032500;28;20035;-79
2021/11/27 08:33:51;;;;;;;5.38;3.25;;;;;;;5.90;67.92;94580.91;5064317;28;20039;-80
2021/11/27 08:36:17;;;;;;;5.85;3.70;;;;;;;5.95;67.90;94586.00;5071768;28;20024;-79
2021/11/27 08:38:42;;;;;;;5.88;3.42;;;;;;;5.91;68.19;94592.00;5055297;28;20028;-79
2021/11/27 08:41:08;;;;;;;7.00;3.90;;;;;;;5.74;68.25;94590.66;5072180;28;20038;-79
2021/11/27 08:43:36;;;;;;;5.32;3.38;;;;;;;5.88;68.35;94600.28;5055433;28;20567;-79
2021/11/27 08:46:01;;;;;;;6.85;4.40;;;;;;;5.80;68.33;94599.88;5072027;28;20040;-80
2021/11/27 08:48:27;;;;;;;6.95;4.60;;;;;;;5.83;67.87;94595.97;5072028;28;20024;-80
2021/11/27 08:50:52;;;;;;;8.13;4.68;;;;;;;5.88;68.41;94603.66;5072028;28;20506;-80
2021/11/27 08:53:18;;;;;;;8.10;4.47;;;;;;;5.85;68.26;94601.63;5061348;28;20037;-79
2021/11/27 08:55:43;;;;;;;6.45;4.20;;;;;;;5.86;68.13;94608.34;5049078;28;20028;-79
2021/11/27 08:58:08;;;;;;;7.97;4.13;;;;;;;5.92;68.81;94601.28;5037347;28;20107;-79
2021/11/27 09:00:34;;;;;;;7.10;3.80;;;;;;;5.99;67.89;94607.66;5081195;28;20032;-79
2021/11/27 09:03:00;;;;;;;7.90;4.25;;;;;;;6.05;68.05;94618.72;5031677;28;20720;-79
2021/11/27 09:05:25;;;;;;;6.78;4.07;;;;;;;6.04;68.14;94617.16;5038686;28;20505;-80
2021/11/27 09:07:51;;;;;;;9.13;4.80;;;;;;;6.03;67.77;94618.22;5054063;28;20020;-79
2021/11/27 09:10:17;;;;;;;9.13;5.25;;;;;;;6.00;68.13;94613.63;5071674;28;20103;-79
2021/11/27 09:12:42;;;;;;;8.20;5.00;;;;;;;6.06;68.23;94611.72;5061357;28;20030;-79
2021/11/27 09:15:08;;;;;;;8.88;5.13;;;;;;;6.10;68.10;94618.66;5048980;28;20439;-79
2021/11/27 09:17:34;;;;;;;8.90;5.13;;;;;;;6.17;67.79;94621.66;5035066;28;20033;-79
2021/11/27 09:19:59;;;;;;;9.30;4.95;;;;;;;6.24;67.73;94617.94;5049814;28;20031;-79
2021/11/27 09:22:25;;;;;;;10.18;5.28;;;;;;;6.25;67.61;94619.50;5044188;28;20029;-79
2021/11/27 09:24:50;;;;;;;9.35;5.38;;;;;;;6.30;67.38;94627.16;5051768;28;20442;-79
2021/11/27 09:27:16;;;;;;;10.63;5.47;;;;;;;6.30;67.70;94627.16;5071522;28;20145;-79
2021/11/27 09:29:41;;;;;;;9.48;5.18;;;;;;;6.28;67.77;94631.84;5071707;28;20096;-79
2021/11/27 09:32:09;;;;;;;11.10;6.03;;;;;;;6.30;67.25;94632.34;5027896;28;20025;-79
2021/11/27 09:34:34;;;;;;;11.35;5.93;;;;;;;6.27;67.69;94633.69;5047303;28;20020;-78
2021/11/27 09:37:01;;;;;;;10.85;5.85;;;;;;;6.28;67.53;94639.59;5068728;28;20043;-79
2021/11/27 09:39:26;;;;;;;12.20;6.45;;;;;;;6.18;68.00;94645.66;5035017;28;20036;-79
2021/11/27 09:41:52;;;;;;;12.18;6.70;;;;;;;6.16;68.49;94647.75;5051392;28;20028;-79
2021/11/27 09:44:18;;;;;;;10.20;5.85;;;;;;;6.25;68.14;94650.50;5034222;28;20439;-79
2021/11/27 09:46:45;;;;;;;12.40;6.07;;;;;;;6.17;68.48;94655.25;5033418;28;20017;-79
2021/11/27 09:49:22;;;;;;;12.40;6.43;;;;;;;6.10;68.35;94659.97;5034163;28;20032;-79
2021/11/27 09:51:52;;;;;;;11.40;6.07;;;;;;;6.13;68.49;94661.22;5034490;28;20353;-78
2021/11/27 09:54:18;;;;;;;10.40;5.60;;;;;;;6.31;67.69;94672.66;5038520;28;20099;-79
2021/11/27 09:56:45;;;;;;;10.32;6.10;;;;;;;6.35;67.14;94663.28;4997495;28;20025;-79
2021/11/27 09:59:10;;;;;;;14.32;7.03;;;;;;;6.32;67.67;94672.38;5031011;28;20114;-77
2021/11/27 10:01:38;;;;;;;11.57;6.07;;;;;;;6.33;67.66;94671.31;5031113;28;20068;-78
2021/11/27 10:04:05;;;;;;;10.30;6.00;;;;;;;6.40;67.91;94678.72;5064551;28;20036;-79
2021/11/27 10:06:37;;;;;;;12.40;5.95;;;;;;;6.49;67.83;94682.19;5037115;28;20545;-78
2021/11/27 10:09:11;;;;;;;13.73;6.50;;;;;;;6.39;67.90;94684.91;5053566;28;20034;-78
2021/11/27 10:11:37;;;;;;;9.73;5.53;;;;;;;6.50;67.79;94683.75;5054620;28;20028;-78
2021/11/27 10:14:04;;;;;;;11.27;6.65;;;;;;;6.53;67.65;94692.78;5054330;28;20036;-79
2021/11/27 10:16:32;;;;;;;10.90;6.30;;;;;;;6.50;67.60;94696.69;5070466;28;20031;-79
2021/11/27 10:19:16;;;;;;;10.43;6.35;;;;;;;6.21;68.03;94688.28;5054872;28;20032;-78
2021/11/27 10:21:41;;;;;;;12.73;6.38;;;;;;;6.43;67.70;94696.25;5070492;28;20082;-78
2021/11/27 10:24:21;;;;;;;10.93;6.43;;;;;;;6.21;68.52;94693.44;5017545;28;20024;-79
2021/11/27 10:26:49;;;;;;;12.82;7.10;;;;;;;6.43;67.96;94701.44;5067930;28;20032;-79
2021/11/27 10:29:21;;;;;;;10.88;6.22;;;;;;;6.47;67.46;94699.81;5068314;28;20040;-79
2021/11/27 10:31:52;;;;;;;10.32;5.72;;;;;;;6.45;67.95;94694.16;5030523;28;20504;-78
2021/11/27 10:34:21;;;;;;;9.85;5.57;;;;;;;6.50;68.23;94701.09;5042863;28;20029;-79
2021/11/27 10:36:47;;;;;;;11.00;6.20;;;;;;;6.58;67.75;94708.22;5070127;28;20047;-78
2021/11/27 10:39:12;;;;;;;11.65;6.80;;;;;;;6.57;67.86;94709.25;5053950;28;20028;-79
2021/11/27 10:42:05;;;;;;;11.07;6.40;;;;;;;6.33;68.72;94701.56;5037399;28;20162;-79
2021/11/27 10:44:36;;;;;;;11.55;6.45;;;;;;;6.48;67.26;94706.53;5070792;28;20111;-79
2021/11/27 10:47:11;;;;;;;10.50;6.35;;;;;;;6.38;67.50;94702.25;5069864;28;20177;-79
2021/11/27 10:49:39;;;;;;;9.15;5.40;;;;;;;6.53;67.36;94698.72;5053264;28;20115;-79
2021/11/27 10:52:07;;;;;;;9.60;5.63;;;;;;;6.72;67.40;94708.28;5053512;28;20502;-79
2021/11/27 10:54:51;;;;;;;14.32;7.80;;;;;;;6.53;67.45;94713.47;5052935;28;20162;-78
2021/11/27 10:57:43;;;;;;;12.40;8.00;;;;;;;6.43;68.29;94722.09;5069545;28;20059;-79
2021/11/27 11:00:35;;;;;;;10.68;5.90;;;;;;;6.53;68.02;94719.38;5031990;28;20044;-79
2021/11/27 11:03:02;;;;;;;8.55;5.32;;;;;;;6.71;67.49;94728.19;5065066;28;20032;-79
2021/11/27 11:05:37;;;;;;;8.23;5.72;;;;;;;6.47;67.43;94733.41;5029581;28;20052;-79
2021/11/27 11:08:04;;;;;;;7.97;5.00;;;;;;;6.64;67.11;94727.78;5013315;28;20436;-79
2021/11/27 11:10:32;;;;;;;8.35;4.80;;;;;;;6.57;67.11;94735.09;4997040;28;20056;-78
2021/11/27 11:13:09;;;;;;;8.80;5.93;;;;;;;6.48;67.43;94727.22;5046488;28;20033;-78
2021/11/27 11:15:38;;;;;;;8.73;5.03;;;;;;;6.53;67.01;94719.38;5047294;28;20079;-78
2021/11/27 11:18:09;;;;;;;10.23;5.22;;;;;;;6.46;67.62;94733.69;5047382;28;20078;-78
2021/11/27 11:20:35;;;;;;;7.22;4.97;;;;;;;6.63;67.79;94730.63;5014618;28;20069;-78
2021/11/27 11:23:14;;;;;;;8.90;5.03;;;;;;;6.60;67.77;94741.53;5033458;28;20508;-78
2021/11/27 11:26:04;;;;;;;8.38;4.97;;;;;;;6.65;67.25;94749.22;5050390;28;20029;-78
2021/11/27 11:28:38;;;;;;;9.18;5.03;;;;;;;6.76;66.85;94758.38;5060993;28;20100;-79
2021/11/27 11:31:06;;;;;;;8.30;4.55;;;;;;;6.80;66.12;94748.25;5063330;28;20056;-78
2021/11/27 11:33:34;;;;;;;7.22;3.97;;;;;;;6.73;66.61;94753.78;5040123;28;20101;-78
2021/11/27 11:36:05;;;;;;;7.43;4.43;;;;;;;6.58;67.17;94752.16;5052548;28;20079;-78
2021/11/27 11:38:31;;;;;;;8.55;4.85;;;;;;;6.65;67.47;94762.16;5038296;28;20115;-78
2021/11/27 11:40:57;;;;;;;8.40;4.68;;;;;;;6.63;67.60;94759.88;5054232;28;20107;-79
2021/11/27 11:43:22;;;;;;;7.88;5.40;;;;;;;6.64;67.69;94763.22;5056944;28;20510;-78